createdAt,value
2019-02-17T00:02:24.511Z,38.37
2019-02-17T00:05:13.342Z,33.00
2019-02-17T00:07:54.316Z,43.87
2019-02-17T00:10:34.177Z,37.33
2019-02-17T00:13:22.842Z,37.57
2019-02-17T00:16:03.834Z,40.30
2019-02-17T00:18:43.660Z,34.70
2019-02-17T00:21:32.391Z,36.20
2019-02-17T00:24:12.397Z,34.13
2019-02-17T00:27:01.158Z,33.87
2019-02-17T00:29:41.110Z,36.77
2019-02-17T00:32:29.886Z,32.47
2019-02-17T00:35:10.826Z,34.27
2019-02-17T00:37:50.547Z,35.40
2019-02-17T00:40:20.315Z,30.80
2019-02-17T02:18:06.123Z,29.47
2019-02-17T02:20:47.139Z,42.00
2019-02-17T02:23:28.444Z,39.00
2019-02-17T02:26:09.418Z,34.30
2019-02-17T02:28:49.067Z,33.77
2019-02-17T02:31:37.795Z,35.90
2019-02-17T02:34:19.097Z,35.60
2019-02-17T02:37:00.434Z,39.27
2019-02-17T02:39:40.614Z,34.27
2019-02-17T02:42:21.587Z,40.43
2019-02-17T02:45:02.542Z,34.13
2019-02-17T02:47:42.255Z,32.43
2019-02-17T02:50:31.032Z,31.23
2019-02-17T02:53:10.706Z,31.83
2019-02-17T02:55:59.475Z,33.37
2019-02-17T02:58:40.406Z,33.00
2019-02-17T03:01:21.810Z,35.80
2019-02-17T03:04:02.996Z,36.30
2019-02-17T03:09:33.231Z,30.33
2019-02-17T03:12:21.947Z,36.63
2019-02-17T03:15:04.088Z,36.50
2019-02-17T03:46:40.324Z,28.60
2019-02-17T03:49:21.775Z,37.83
2019-02-17T03:52:01.640Z,30.80
2019-02-17T03:54:50.321Z,29.70
2019-02-17T03:57:29.760Z,32.17
2019-02-17T04:00:18.508Z,29.50
2019-02-17T04:02:58.183Z,34.27
2019-02-17T04:05:46.870Z,30.57
2019-02-17T04:08:27.734Z,28.33
2019-02-17T04:11:08.841Z,34.33
2019-02-17T04:13:50.356Z,32.43
2019-02-17T04:16:29.793Z,32.20
2019-02-17T04:19:18.492Z,29.90
2019-02-17T04:21:59.974Z,34.17
2019-02-17T04:24:39.839Z,32.97
2019-02-17T04:27:28.615Z,34.63
2019-02-17T04:30:10.119Z,31.00
2019-02-17T04:32:51.178Z,32.07
2019-02-17T04:35:30.639Z,35.90
2019-02-17T04:38:19.353Z,34.60
2019-02-17T04:41:00.575Z,31.70
2019-02-17T04:43:41.938Z,31.87
2019-02-17T04:46:21.637Z,32.23
2019-02-17T04:49:10.405Z,30.63
2019-02-17T04:51:49.929Z,32.73
2019-02-17T04:54:38.655Z,40.10
2019-02-17T04:57:20.052Z,29.67
2019-02-17T05:00:01.448Z,31.13
2019-02-17T05:02:41.260Z,31.07
2019-02-17T05:05:29.960Z,30.63
2019-02-17T05:08:09.518Z,31.40
2019-02-17T05:10:58.235Z,37.77
2019-02-17T05:13:39.310Z,35.37
2019-02-17T05:16:20.800Z,36.37
2019-02-17T05:19:01.725Z,36.63
2019-02-17T05:21:43.185Z,33.47
2019-02-17T05:24:24.378Z,32.43
2019-02-17T05:27:04.115Z,36.27
2019-02-17T05:29:52.846Z,39.93
2019-02-17T05:32:34.275Z,29.07
2019-02-17T05:35:22.941Z,33.97
2019-02-17T05:38:04.389Z,35.27
2019-02-17T05:45:51.717Z,34.93
2019-02-17T05:48:33.227Z,32.77
2019-02-17T05:51:13.167Z,32.40
2019-02-17T05:54:01.951Z,32.97
2019-02-17T05:56:43.109Z,34.87
2019-02-17T05:59:24.425Z,28.17
2019-02-17T06:02:05.486Z,32.70
2019-02-17T06:04:46.919Z,30.37
2019-02-17T06:07:26.812Z,32.57
2019-02-17T06:10:15.509Z,29.10
2019-02-17T06:12:54.947Z,31.83
2019-02-17T06:15:43.679Z,32.83
2019-02-17T06:18:24.983Z,25.73
2019-02-17T06:21:04.599Z,37.73
2019-02-17T06:23:53.341Z,37.10
2019-02-17T06:26:32.886Z,29.73
2019-02-17T06:29:21.681Z,32.83
2019-02-17T06:32:02.529Z,43.30
2019-02-17T06:34:44.317Z,51.50
2019-02-17T06:37:25.113Z,40.03
2019-02-17T06:40:06.480Z,49.57
2019-02-17T06:42:46.395Z,51.43
2019-02-17T06:45:35.111Z,49.00
2019-02-17T06:48:16.697Z,48.93
2019-02-17T06:50:56.452Z,42.80
2019-02-17T06:53:45.189Z,37.73
2019-02-17T06:56:34.182Z,43.30
2019-02-17T06:59:15.260Z,38.80
2019-02-17T07:01:55.071Z,42.23
2019-02-17T07:05:02.669Z,38.70
2019-02-17T07:07:44.272Z,36.57
2019-02-17T07:10:25.652Z,34.33
2019-02-17T07:13:07.087Z,30.97
2019-02-17T07:15:48.472Z,37.47
2019-02-17T07:18:28.255Z,31.70
2019-02-17T07:21:16.941Z,30.40
2019-02-17T07:23:56.542Z,32.73
2019-02-17T07:26:45.342Z,29.67
2019-02-17T07:29:24.913Z,33.57
2019-02-17T07:32:13.728Z,31.20
2019-02-17T07:34:55.089Z,33.83
2019-02-17T07:37:34.549Z,31.77
2019-02-17T07:40:04.536Z,30.43
2019-02-17T08:35:49.932Z,35.70
2019-02-17T08:38:29.846Z,35.27
2019-02-17T09:05:12.055Z,34.07
2019-02-17T09:08:13.251Z,40.07
2019-02-17T09:42:52.436Z,44.80
2019-02-17T09:53:35.046Z,37.50
2019-02-17T10:36:06.148Z,30.20
2019-02-17T10:44:19.700Z,34.67
2019-02-17T11:05:39.790Z,31.43
2019-02-17T11:08:28.558Z,33.03
2019-02-17T11:11:12.329Z,33.67
2019-02-17T11:16:21.775Z,34.77
2019-02-17T11:24:09.103Z,27.77
2019-02-17T11:26:48.636Z,31.70
2019-02-17T11:29:37.339Z,26.17
2019-02-17T11:32:20.436Z,23.23
2019-02-17T11:46:02.153Z,26.13
2019-02-17T11:48:48.235Z,31.50
2019-02-17T11:55:11.400Z,30.80
2019-02-17T12:13:21.746Z,29.30
2019-02-17T12:19:01.308Z,26.67
2019-02-17T12:55:20.781Z,17.10
2019-02-17T15:07:13.550Z,26.53
2019-02-17T15:10:14.771Z,31.37
2019-02-17T15:13:00.102Z,26.83
2019-02-17T15:15:36.655Z,26.53
2019-02-17T16:01:11.067Z,34.63
2019-02-17T16:15:45.842Z,32.77
2019-02-17T16:27:43.734Z,28.40
2019-02-17T16:30:30.385Z,28.90
2019-02-17T16:55:57.199Z,36.80
2019-02-17T17:04:48.100Z,28.90
2019-02-17T17:12:37.952Z,40.53
2019-02-17T17:28:33.506Z,29.73
2019-02-17T18:27:41.409Z,29.03
2019-02-17T18:40:15.080Z,30.47
2019-02-17T18:43:07.292Z,33.63
2019-02-17T18:44:43.143Z,34.60
2019-02-17T18:47:32.293Z,37.00
2019-02-17T18:50:01.888Z,41.10
2019-02-17T18:52:43.376Z,46.80
2019-02-17T18:55:29.661Z,40.03
2019-02-17T18:58:13.026Z,44.87
2019-02-17T19:09:44.542Z,40.40
2019-02-17T19:12:26.847Z,40.23
2019-02-17T19:15:17.420Z,41.20
2019-02-17T19:18:03.944Z,43.37
2019-02-17T19:21:28.279Z,43.77
2019-02-17T19:23:48.587Z,38.67
2019-02-17T19:29:40.318Z,40.70
2019-02-17T19:35:58.566Z,42.80
2019-02-17T19:44:29.262Z,37.37
2019-02-17T20:11:11.721Z,53.93
2019-02-17T20:13:55.763Z,46.50
2019-02-17T20:19:26.486Z,53.00
2019-02-17T20:22:14.950Z,38.30
2019-02-17T20:24:52.201Z,52.40
2019-02-17T20:27:34.260Z,48.57
2019-02-17T20:30:19.072Z,42.43
2019-02-17T20:43:46.850Z,47.13
2019-02-17T21:00:57.588Z,47.37
2019-02-17T21:03:41.432Z,48.20
2019-02-17T21:06:23.784Z,47.27
2019-02-17T21:15:31.885Z,43.87
2019-02-17T21:18:19.666Z,60.67
2019-02-17T21:23:28.705Z,64.00
2019-02-17T21:26:10.193Z,76.60
2019-02-17T22:16:23.987Z,83.90
2019-02-17T22:19:12.718Z,116.87
2019-02-17T22:21:54.074Z,62.43
2019-02-17T22:27:02.730Z,41.67
2019-02-17T22:29:51.756Z,49.10
2019-02-17T22:42:56.701Z,38.27
2019-02-17T22:45:26.697Z,33.93
2019-02-17T22:48:07.964Z,38.30
2019-02-17T23:03:55.636Z,124.07
2019-02-17T23:06:53.534Z,118.10
2019-02-17T23:09:16.114Z,57.20
2019-02-17T23:12:04.980Z,55.53
2019-02-17T23:14:46.527Z,56.03
